Daleville, Alabama
Current Conditions -  °F | °C
As of 1:58 PM on Saturday 25 Oct 2014 (Local Time) from KOZR Reporting Station
Clear Clear  
Wind Chill: 77°   Ceiling: Unl
Heat Index: 78°   Visibility: 10mi
Dew Point: 48°   Wind: 9mph
Humidity: 35%   Direction: 340°NNW
Pressure: 30.03"   Gusts: NA
Location:  31.31°N, 85.71°W
Report Text: KOZR 251858Z AUTO 34008KT 10SM CLR 25/09 A3003 RMK AO2 SLP170 T02500087
Loading
Personal Weather Stations






























Interactive Weather Map
Tropical Storm Tracking
New forecast layout! Learn more

10-Day Weather Forecast

Advertisements
Track Severe Weather on mobile